sensor_id;sensor_type;location;lat;lon;timestamp;pressure;altitude;pressure_sealevel;temperature;humidity
15932;BME280;8065;49.520;11.284;2023-01-05T00:01:14;97633.81;;;13.62;85.24
15932;BME280;8065;49.520;11.284;2023-01-05T00:03:40;97629.25;;;13.62;85.21
15932;BME280;8065;49.520;11.284;2023-01-05T00:06:09;97636.50;;;13.74;84.78
15932;BME280;8065;49.520;11.284;2023-01-05T00:08:38;97624.13;;;13.69;85.76
15932;BME280;8065;49.520;11.284;2023-01-05T00:11:05;97634.03;;;13.69;85.37
15932;BME280;8065;49.520;11.284;2023-01-05T00:13:49;97620.91;;;13.64;86.31
15932;BME280;8065;49.520;11.284;2023-01-05T00:16:33;97630.91;;;13.67;85.94
15932;BME280;8065;49.520;11.284;2023-01-05T00:19:33;97635.03;;;13.52;86.69
15932;BME280;8065;49.520;11.284;2023-01-05T00:22:18;97650.63;;;13.62;86.93
15932;BME280;8065;49.520;11.284;2023-01-05T00:25:01;97636.69;;;13.57;87.31
15932;BME280;8065;49.520;11.284;2023-01-05T00:27:30;97638.13;;;13.42;88.49
15932;BME280;8065;49.520;11.284;2023-01-05T00:29:57;97640.94;;;13.58;88.46
15932;BME280;8065;49.520;11.284;2023-01-05T00:32:23;97633.59;;;13.79;87.03
15932;BME280;8065;49.520;11.284;2023-01-05T00:34:50;97642.28;;;13.64;88.55
15932;BME280;8065;49.520;11.284;2023-01-05T00:37:20;97633.13;;;13.40;89.95
15932;BME280;8065;49.520;11.284;2023-01-05T00:39:46;97636.88;;;13.27;91.15
15932;BME280;8065;49.520;11.284;2023-01-05T00:42:14;97624.66;;;13.26;91.73
15932;BME280;8065;49.520;11.284;2023-01-05T00:44:41;97624.44;;;13.31;91.57
15932;BME280;8065;49.520;11.284;2023-01-05T00:47:07;97624.41;;;13.19;92.46
15932;BME280;8065;49.520;11.284;2023-01-05T00:49:34;97627.53;;;13.21;92.19
15932;BME280;8065;49.520;11.284;2023-01-05T00:52:00;97616.41;;;13.19;92.88
15932;BME280;8065;49.520;11.284;2023-01-05T00:54:27;97618.84;;;13.24;92.30
15932;BME280;8065;49.520;11.284;2023-01-05T00:56:53;97611.84;;;13.20;92.88
15932;BME280;8065;49.520;11.284;2023-01-05T00:59:21;97610.47;;;13.13;93.11
15932;BME280;8065;49.520;11.284;2023-01-05T01:01:49;97616.41;;;13.19;92.74
15932;BME280;8065;49.520;11.284;2023-01-05T01:04:17;97597.97;;;13.38;92.24
15932;BME280;8065;49.520;11.284;2023-01-05T01:06:44;97604.44;;;13.37;91.76
15932;BME280;8065;49.520;11.284;2023-01-05T01:09:12;97591.31;;;13.44;91.92
15932;BME280;8065;49.520;11.284;2023-01-05T01:11:39;97586.06;;;13.48;91.34
15932;BME280;8065;49.520;11.284;2023-01-05T01:14:07;97586.06;;;13.48;91.88
15932;BME280;8065;49.520;11.284;2023-01-05T01:16:36;97589.53;;;13.49;91.95
15932;BME280;8065;49.520;11.284;2023-01-05T01:19:03;97594.31;;;13.43;92.01
15932;BME280;8065;49.520;11.284;2023-01-05T01:21:29;97591.63;;;13.43;92.02
15932;BME280;8065;49.520;11.284;2023-01-05T01:23:55;97606.66;;;13.48;91.61
15932;BME280;8065;49.520;11.284;2023-01-05T01:26:22;97600.84;;;13.33;92.42
15932;BME280;8065;49.520;11.284;2023-01-05T01:28:48;97600.56;;;13.02;94.36
15932;BME280;8065;49.520;11.284;2023-01-05T01:31:15;97591.69;;;13.10;93.81
15932;BME280;8065;49.520;11.284;2023-01-05T01:33:42;97585.03;;;13.16;94.10
15932;BME280;8065;49.520;11.284;2023-01-05T01:36:09;97581.22;;;12.93;94.98
15932;BME280;8065;49.520;11.284;2023-01-05T01:38:36;97567.44;;;13.15;94.25
15932;BME280;8065;49.520;11.284;2023-01-05T01:41:02;97569.56;;;13.09;93.94
15932;BME280;8065;49.520;11.284;2023-01-05T01:43:41;97560.78;;;13.09;94.16
15932;BME280;8065;49.520;11.284;2023-01-05T01:46:08;97561.88;;;13.08;94.11
15932;BME280;8065;49.520;11.284;2023-01-05T01:48:35;97559.66;;;12.98;93.94
15932;BME280;8065;49.520;11.284;2023-01-05T01:51:07;97558.56;;;12.99;94.46
15932;BME280;8065;49.520;11.284;2023-01-05T01:53:38;97565.22;;;13.05;93.71
15932;BME280;8065;49.520;11.284;2023-01-05T01:56:08;97559.34;;;13.11;93.54
15932;BME280;8065;49.520;11.284;2023-01-05T01:58:35;97551.66;;;12.98;94.21
15932;BME280;8065;49.520;11.284;2023-01-05T02:01:02;97558.28;;;13.37;92.14
15932;BME280;8065;49.520;11.284;2023-01-05T02:03:30;97558.03;;;13.18;92.37
15932;BME280;8065;49.520;11.284;2023-01-05T02:05:57;97542.16;;;13.33;92.41
15932;BME280;8065;49.520;11.284;2023-01-05T02:08:26;97533.81;;;13.35;91.98
15932;BME280;8065;49.520;11.284;2023-01-05T02:11:04;97537.25;;;13.35;92.16
15932;BME280;8065;49.520;11.284;2023-01-05T02:13:42;97536.13;;;13.36;92.85
15932;BME280;8065;49.520;11.284;2023-01-05T02:16:20;97530.13;;;13.39;92.15
15932;BME280;8065;49.520;11.284;2023-01-05T02:18:59;97541.81;;;13.35;92.52
15932;BME280;8065;49.520;11.284;2023-01-05T02:21:38;97537.47;;;13.30;92.47
15932;BME280;8065;49.520;11.284;2023-01-05T02:24:32;97543.94;;;13.41;92.16
15932;BME280;8065;49.520;11.284;2023-01-05T02:33:25;97525.56;;;13.40;92.61
15932;BME280;8065;49.520;11.284;2023-01-05T02:35:56;97530.59;;;13.29;92.58
15932;BME280;8065;49.520;11.284;2023-01-05T02:38:32;97525.25;;;13.29;92.99
15932;BME280;8065;49.520;11.284;2023-01-05T02:41:06;97531.34;;;13.30;93.61
15932;BME280;8065;49.520;11.284;2023-01-05T02:43:33;97515.47;;;13.33;92.85
15932;BME280;8065;49.520;11.284;2023-01-05T02:46:00;97521.47;;;13.30;93.20
15932;BME280;8065;49.520;11.284;2023-01-05T02:48:28;97515.78;;;13.44;92.49
15932;BME280;8065;49.520;11.284;2023-01-05T02:50:57;97508.78;;;13.39;93.35
15932;BME280;8065;49.520;11.284;2023-01-05T02:53:28;97511.00;;;13.25;93.92
15932;BME280;8065;49.520;11.284;2023-01-05T02:56:00;97498.19;;;13.06;94.51
15932;BME280;8065;49.520;11.284;2023-01-05T02:58:30;97498.19;;;13.06;94.66
15932;BME280;8065;49.520;11.284;2023-01-05T03:01:03;97499.00;;;13.19;94.70
15932;BME280;8065;49.520;11.284;2023-01-05T03:03:36;97488.00;;;13.33;93.68
15932;BME280;8065;49.520;11.284;2023-01-05T03:06:09;97489.53;;;13.34;93.43
15932;BME280;8065;49.520;11.284;2023-01-05T03:08:41;97488.53;;;13.26;94.16
15932;BME280;8065;49.520;11.284;2023-01-05T03:11:12;97492.56;;;13.32;93.74
15932;BME280;8065;49.520;11.284;2023-01-05T03:14:00;97485.19;;;13.41;93.64
15932;BME280;8065;49.520;11.284;2023-01-05T03:16:33;97497.09;;;13.44;93.63
15932;BME280;8065;49.520;11.284;2023-01-05T03:19:03;97495.34;;;13.24;93.96
15932;BME280;8065;49.520;11.284;2023-01-05T03:21:50;97489.44;;;13.30;94.15
15932;BME280;8065;49.520;11.284;2023-01-05T03:24:36;97492.09;;;13.42;93.60
15932;BME280;8065;49.520;11.284;2023-01-05T03:27:20;97488.88;;;13.37;94.07
15932;BME280;8065;49.520;11.284;2023-01-05T03:30:06;97488.97;;;13.40;93.68
15932;BME280;8065;49.520;11.284;2023-01-05T03:32:54;97480.53;;;13.38;93.86
15932;BME280;8065;49.520;11.284;2023-01-05T03:35:49;97484.97;;;13.59;92.93
15932;BME280;8065;49.520;11.284;2023-01-05T03:38:25;97474.41;;;13.50;93.74
15932;BME280;8065;49.520;11.284;2023-01-05T03:40:56;97472.75;;;13.45;93.93
15932;BME280;8065;49.520;11.284;2023-01-05T03:43:24;97468.16;;;13.58;93.27
15932;BME280;8065;49.520;11.284;2023-01-05T03:45:52;97463.38;;;13.52;93.36
15932;BME280;8065;49.520;11.284;2023-01-05T03:48:20;97472.25;;;13.68;92.50
15932;BME280;8065;49.520;11.284;2023-01-05T03:50:48;97465.00;;;13.81;91.67
15932;BME280;8065;49.520;11.284;2023-01-05T03:53:15;97454.09;;;13.73;91.92
15932;BME280;8065;49.520;11.284;2023-01-05T03:55:42;97463.66;;;13.74;91.68
15932;BME280;8065;49.520;11.284;2023-01-05T03:58:08;97465.88;;;13.85;91.02
15932;BME280;8065;49.520;11.284;2023-01-05T04:00:35;97459.16;;;13.91;90.83
15932;BME280;8065;49.520;11.284;2023-01-05T04:03:01;97455.69;;;13.90;90.36
15932;BME280;8065;49.520;11.284;2023-01-05T04:05:29;97465.47;;;13.98;90.32
15932;BME280;8065;49.520;11.284;2023-01-05T04:07:56;97470.59;;;13.91;89.97
15932;BME280;8065;49.520;11.284;2023-01-05T04:10:23;97472.81;;;14.01;89.28
15932;BME280;8065;49.520;11.284;2023-01-05T04:12:49;97473.47;;;13.98;89.80
15932;BME280;8065;49.520;11.284;2023-01-05T04:15:16;97471.19;;;14.13;89.17
15932;BME280;8065;49.520;11.284;2023-01-05T04:17:42;97476.44;;;14.09;89.04
15932;BME280;8065;49.520;11.284;2023-01-05T04:20:10;97477.06;;;14.18;89.39
15932;BME280;8065;49.520;11.284;2023-01-05T04:22:36;97462.94;;;14.18;89.07
15932;BME280;8065;49.520;11.284;2023-01-05T04:25:05;97475.88;;;14.16;89.17
15932;BME280;8065;49.520;11.284;2023-01-05T04:27:31;97479.66;;;14.15;89.13
15932;BME280;8065;49.520;11.284;2023-01-05T04:29:58;97478.28;;;14.21;88.93
15932;BME280;8065;49.520;11.284;2023-01-05T04:32:24;97475.81;;;14.28;88.89
15932;BME280;8065;49.520;11.284;2023-01-05T04:34:51;97472.06;;;14.17;89.81
15932;BME280;8065;49.520;11.284;2023-01-05T04:37:17;97479.22;;;14.13;89.99
15932;BME280;8065;49.520;11.284;2023-01-05T04:39:44;97482.53;;;14.22;89.80
15932;BME280;8065;49.520;11.284;2023-01-05T04:42:11;97487.81;;;14.06;90.82
15932;BME280;8065;49.520;11.284;2023-01-05T04:44:38;97489.75;;;14.21;90.18
15932;BME280;8065;49.520;11.284;2023-01-05T04:47:04;97482.41;;;14.18;90.65
15932;BME280;8065;49.520;11.284;2023-01-05T04:49:31;97489.94;;;14.00;92.03
15932;BME280;8065;49.520;11.284;2023-01-05T04:51:57;97487.81;;;14.06;91.74
15932;BME280;8065;49.520;11.284;2023-01-05T04:54:24;97485.03;;;14.02;91.72
15932;BME280;8065;49.520;11.284;2023-01-05T04:56:50;97485.53;;;13.92;93.12
15932;BME280;8065;49.520;11.284;2023-01-05T04:59:18;97481.56;;;13.86;93.21
15932;BME280;8065;49.520;11.284;2023-01-05T05:01:44;97503.78;;;13.90;92.63
15932;BME280;8065;49.520;11.284;2023-01-05T05:04:11;97496.03;;;13.85;93.35
15932;BME280;8065;49.520;11.284;2023-01-05T05:06:37;97496.69;;;13.82;92.91
15932;BME280;8065;49.520;11.284;2023-01-05T05:09:04;97508.50;;;13.81;94.19
15932;BME280;8065;49.520;11.284;2023-01-05T05:11:30;97509.63;;;13.80;93.53
15932;BME280;8065;49.520;11.284;2023-01-05T05:13:57;97513.44;;;13.95;93.13
15932;BME280;8065;49.520;11.284;2023-01-05T05:16:25;97505.19;;;13.72;94.29
15932;BME280;8065;49.520;11.284;2023-01-05T05:18:51;97518.19;;;13.86;94.00
15932;BME280;8065;49.520;11.284;2023-01-05T05:21:17;97523.25;;;13.91;93.50
15932;BME280;8065;49.520;11.284;2023-01-05T05:23:44;97526.09;;;13.82;93.93
15932;BME280;8065;49.520;11.284;2023-01-05T05:26:10;97528.94;;;13.89;93.86
15932;BME280;8065;49.520;11.284;2023-01-05T05:28:37;97530.53;;;13.78;94.07
15932;BME280;8065;49.520;11.284;2023-01-05T05:31:03;97531.69;;;13.53;95.52
15932;BME280;8065;49.520;11.284;2023-01-05T05:33:31;97516.31;;;13.62;95.45
15932;BME280;8065;49.520;11.284;2023-01-05T05:35:57;97517.00;;;13.59;95.57
15932;BME280;8065;49.520;11.284;2023-01-05T05:38:24;97525.56;;;13.40;96.24
15932;BME280;8065;49.520;11.284;2023-01-05T05:40:50;97525.69;;;13.56;95.43
15932;BME280;8065;49.520;11.284;2023-01-05T05:43:17;97531.78;;;13.68;93.65
15932;BME280;8065;49.520;11.284;2023-01-05T05:45:43;97539.69;;;13.65;93.23
15932;BME280;8065;49.520;11.284;2023-01-05T05:48:10;97549.56;;;13.76;92.71
15932;BME280;8065;49.520;11.284;2023-01-05T05:50:37;97544.47;;;13.59;93.46
15932;BME280;8065;49.520;11.284;2023-01-05T05:53:04;97566.38;;;13.77;92.67
15932;BME280;8065;49.520;11.284;2023-01-05T05:55:31;97561.16;;;13.56;93.10
15932;BME280;8065;49.520;11.284;2023-01-05T05:57:57;97569.72;;;13.62;93.32
15932;BME280;8065;49.520;11.284;2023-01-05T06:00:24;97574.41;;;13.65;93.16
15932;BME280;8065;49.520;11.284;2023-01-05T06:02:50;97577.97;;;13.57;93.00
15932;BME280;8065;49.520;11.284;2023-01-05T06:05:16;97588.63;;;13.57;92.26
15932;BME280;8065;49.520;11.284;2023-01-05T06:07:44;97597.31;;;13.66;91.99
15932;BME280;8065;49.520;11.284;2023-01-05T06:10:10;97591.97;;;13.66;90.80
15932;BME280;8065;49.520;11.284;2023-01-05T06:12:37;97591.09;;;13.62;91.58
15932;BME280;8065;49.520;11.284;2023-01-05T06:15:04;97598.75;;;13.51;92.03
15932;BME280;8065;49.520;11.284;2023-01-05T06:17:31;97604.31;;;13.70;90.89
15932;BME280;8065;49.520;11.284;2023-01-05T06:19:57;97608.00;;;13.66;90.90
15932;BME280;8065;49.520;11.284;2023-01-05T06:22:24;97624.56;;;13.59;90.58
15932;BME280;8065;49.520;11.284;2023-01-05T06:24:51;97622.34;;;13.49;90.72
15932;BME280;8065;49.520;11.284;2023-01-05T06:27:19;97631.56;;;13.52;90.61
15932;BME280;8065;49.520;11.284;2023-01-05T06:29:45;97626.47;;;13.59;90.79
15932;BME280;8065;49.520;11.284;2023-01-05T06:32:12;97636.94;;;13.64;89.90
15932;BME280;8065;49.520;11.284;2023-01-05T06:34:38;97634.72;;;13.66;90.31
15932;BME280;8065;49.520;11.284;2023-01-05T06:37:04;97634.72;;;13.66;89.82
15932;BME280;8065;49.520;11.284;2023-01-05T06:39:31;97620.69;;;13.69;89.47
15932;BME280;8065;49.520;11.284;2023-01-05T06:41:59;97631.00;;;13.46;90.28
15932;BME280;8065;49.520;11.284;2023-01-05T06:44:25;97630.69;;;13.60;89.23
15932;BME280;8065;49.520;11.284;2023-01-05T06:46:52;97623.56;;;13.52;89.68
15932;BME280;8065;49.520;11.284;2023-01-05T06:49:19;97635.91;;;13.56;88.94
15932;BME280;8065;49.520;11.284;2023-01-05T06:51:45;97632.03;;;13.54;89.45
15932;BME280;8065;49.520;11.284;2023-01-05T06:54:12;97638.25;;;13.58;89.56
15932;BME280;8065;49.520;11.284;2023-01-05T06:56:38;97640.59;;;13.59;88.85
15932;BME280;8065;49.520;11.284;2023-01-05T06:59:06;97660.28;;;13.55;88.70
15932;BME280;8065;49.520;11.284;2023-01-05T07:01:33;97666.28;;;13.52;89.23
15932;BME280;8065;49.520;11.284;2023-01-05T07:03:59;97673.19;;;13.53;88.67
15932;BME280;8065;49.520;11.284;2023-01-05T07:06:26;97679.84;;;13.47;88.43
15932;BME280;8065;49.520;11.284;2023-01-05T07:08:52;97675.16;;;13.43;88.67
15932;BME280;8065;49.520;11.284;2023-01-05T07:11:18;97686.50;;;13.40;88.12
15932;BME280;8065;49.520;11.284;2023-01-05T07:13:46;97681.16;;;13.40;88.11
15932;BME280;8065;49.520;11.284;2023-01-05T07:16:14;97685.06;;;13.43;87.61
15932;BME280;8065;49.520;11.284;2023-01-05T07:18:40;97696.16;;;13.33;87.66
15932;BME280;8065;49.520;11.284;2023-01-05T07:21:07;97699.94;;;13.32;86.85
15932;BME280;8065;49.520;11.284;2023-01-05T07:23:34;97689.94;;;13.29;87.17
15932;BME280;8065;49.520;11.284;2023-01-05T07:26:02;97691.69;;;13.25;86.65
15932;BME280;8065;49.520;11.284;2023-01-05T07:28:29;97696.69;;;13.26;86.08
15932;BME280;8065;49.520;11.284;2023-01-05T07:30:55;97701.50;;;13.12;86.35
15932;BME280;8065;49.520;11.284;2023-01-05T07:33:23;97700.22;;;13.18;85.78
15932;BME280;8065;49.520;11.284;2023-01-05T07:35:49;97696.69;;;13.26;85.54
15932;BME280;8065;49.520;11.284;2023-01-05T07:38:16;97729.75;;;13.13;85.46
15932;BME280;8065;49.520;11.284;2023-01-05T07:40:42;97732.25;;;13.18;85.21
15932;BME280;8065;49.520;11.284;2023-01-05T07:43:09;97732.63;;;13.08;84.54
15932;BME280;8065;49.520;11.284;2023-01-05T07:45:35;97739.94;;;12.99;84.70
15932;BME280;8065;49.520;11.284;2023-01-05T07:48:02;97735.25;;;12.96;84.15
15932;BME280;8065;49.520;11.284;2023-01-05T07:50:30;97738.75;;;13.08;83.48
15932;BME280;8065;49.520;11.284;2023-01-05T07:52:57;97740.94;;;13.06;84.36
15932;BME280;8065;49.520;11.284;2023-01-05T07:55:24;97745.28;;;12.99;84.02
15932;BME280;8065;49.520;11.284;2023-01-05T07:57:50;97744.72;;;13.05;83.58
15932;BME280;8065;49.520;11.284;2023-01-05T08:00:17;97753.72;;;13.01;83.20
15932;BME280;8065;49.520;11.284;2023-01-05T08:02:43;97740.81;;;13.03;82.42
15932;BME280;8065;49.520;11.284;2023-01-05T08:05:10;97743.59;;;12.94;82.74
15932;BME280;8065;49.520;11.284;2023-01-05T08:07:38;97759.47;;;12.91;82.62
15932;BME280;8065;49.520;11.284;2023-01-05T08:10:05;97763.69;;;12.92;82.69
15932;BME280;8065;49.520;11.284;2023-01-05T08:12:49;97774.16;;;12.97;81.59
15932;BME280;8065;49.520;11.284;2023-01-05T08:15:33;97779.09;;;12.65;82.43
15932;BME280;8065;49.520;11.284;2023-01-05T08:17:59;97778.59;;;12.93;81.93
15932;BME280;8065;49.520;11.284;2023-01-05T08:20:26;97781.94;;;13.02;81.86
15932;BME280;8065;49.520;11.284;2023-01-05T08:22:54;97781.63;;;13.03;81.09
15932;BME280;8065;49.520;11.284;2023-01-05T08:25:20;97785.72;;;13.01;80.97
15932;BME280;8065;49.520;11.284;2023-01-05T08:27:46;97788.22;;;12.85;81.17
15932;BME280;8065;49.520;11.284;2023-01-05T08:30:13;97800.09;;;13.08;80.85
15932;BME280;8065;49.520;11.284;2023-01-05T08:32:40;97799.28;;;12.96;81.29
15932;BME280;8065;49.520;11.284;2023-01-05T08:35:08;97797.19;;;12.80;81.47
15932;BME280;8065;49.520;11.284;2023-01-05T08:37:34;97804.03;;;12.90;81.09
15932;BME280;8065;49.520;11.284;2023-01-05T08:40:02;97804.34;;;12.89;81.19
15932;BME280;8065;49.520;11.284;2023-01-05T08:42:29;97813.72;;;12.95;80.99
15932;BME280;8065;49.520;11.284;2023-01-05T08:44:55;97813.19;;;13.01;80.61
15932;BME280;8065;49.520;11.284;2023-01-05T08:47:22;97812.66;;;13.08;79.83
15932;BME280;8065;49.520;11.284;2023-01-05T08:49:48;97812.53;;;12.84;80.54
15932;BME280;8065;49.520;11.284;2023-01-05T08:52:15;97822.56;;;12.87;80.79
15932;BME280;8065;49.520;11.284;2023-01-05T08:54:41;97818.19;;;13.03;79.53
15932;BME280;8065;49.520;11.284;2023-01-05T08:57:10;97809.97;;;13.17;78.81
15932;BME280;8065;49.520;11.284;2023-01-05T08:59:36;97824.22;;;13.00;79.67
15932;BME280;8065;49.520;11.284;2023-01-05T09:02:03;97818.25;;;13.15;79.19
15932;BME280;8065;49.520;11.284;2023-01-05T09:04:29;97824.25;;;13.12;79.57
15932;BME280;8065;49.520;11.284;2023-01-05T09:06:56;97826.09;;;13.20;78.73
15932;BME280;8065;49.520;11.284;2023-01-05T09:09:22;97842.66;;;13.05;78.28
15932;BME280;8065;49.520;11.284;2023-01-05T09:11:49;97843.75;;;13.04;78.06
15932;BME280;8065;49.520;11.284;2023-01-05T09:14:17;97842.25;;;13.24;76.54
15932;BME280;8065;49.520;11.284;2023-01-05T09:16:44;97856.56;;;13.19;76.72
15932;BME280;8065;49.520;11.284;2023-01-05T09:19:12;97851.22;;;13.19;76.51
15932;BME280;8065;49.520;11.284;2023-01-05T09:21:39;97854.06;;;13.14;76.88
15932;BME280;8065;49.520;11.284;2023-01-05T09:24:05;97849.22;;;13.16;77.46
15932;BME280;8065;49.520;11.284;2023-01-05T09:26:32;97838.72;;;13.32;77.05
15932;BME280;8065;49.520;11.284;2023-01-05T09:28:59;97850.66;;;13.34;76.46
15932;BME280;8065;49.520;11.284;2023-01-05T09:31:27;97846.28;;;13.51;75.54
15932;BME280;8065;49.520;11.284;2023-01-05T09:33:55;97845.94;;;13.52;75.45
15932;BME280;8065;49.520;11.284;2023-01-05T09:36:21;97852.25;;;13.48;74.93
15932;BME280;8065;49.520;11.284;2023-01-05T09:38:48;97862.47;;;14.11;74.19
15932;BME280;8065;49.520;11.284;2023-01-05T09:41:19;97866.56;;;14.91;71.65
15932;BME280;8065;49.520;11.284;2023-01-05T09:43:49;97852.31;;;15.67;70.12
15932;BME280;8065;49.520;11.284;2023-01-05T09:46:20;97858.63;;;16.02;67.20
15932;BME280;8065;49.520;11.284;2023-01-05T09:48:51;97869.81;;;16.20;65.75
15932;BME280;8065;49.520;11.284;2023-01-05T09:51:18;97874.66;;;16.30;65.70
15932;BME280;8065;49.520;11.284;2023-01-05T09:53:45;97872.75;;;16.15;66.12
15932;BME280;8065;49.520;11.284;2023-01-05T09:56:20;97865.84;;;15.86;65.98
15932;BME280;8065;49.520;11.284;2023-01-05T09:58:49;97872.91;;;15.51;66.79
15932;BME280;8065;49.520;11.284;2023-01-05T10:01:17;97868.00;;;15.53;67.73
15932;BME280;8065;49.520;11.284;2023-01-05T10:03:53;97868.16;;;15.32;68.09
15932;BME280;8065;49.520;11.284;2023-01-05T10:06:24;97870.34;;;15.02;69.06
15932;BME280;8065;49.520;11.284;2023-01-05T10:08:52;97873.91;;;14.82;70.30
15932;BME280;8065;49.520;11.284;2023-01-05T10:11:21;97871.69;;;14.47;71.23
15932;BME280;8065;49.520;11.284;2023-01-05T10:14:05;97891.94;;;14.36;71.03
15932;BME280;8065;49.520;11.284;2023-01-05T10:16:34;97884.38;;;14.38;71.50
15932;BME280;8065;49.520;11.284;2023-01-05T10:19:02;97880.31;;;14.20;70.77
15932;BME280;8065;49.520;11.284;2023-01-05T10:21:34;97874.22;;;14.31;71.11
15932;BME280;8065;49.520;11.284;2023-01-05T10:24:11;97883.25;;;14.39;71.03
15932;BME280;8065;49.520;11.284;2023-01-05T10:27:11;97892.38;;;14.38;71.42
15932;BME280;8065;49.520;11.284;2023-01-05T10:29:43;97885.16;;;14.38;71.85
15932;BME280;8065;49.520;11.284;2023-01-05T10:32:22;97876.44;;;14.29;71.84
15932;BME280;8065;49.520;11.284;2023-01-05T10:34:56;97879.00;;;14.38;71.77
15932;BME280;8065;49.520;11.284;2023-01-05T10:37:32;97863.63;;;14.35;72.25
15932;BME280;8065;49.520;11.284;2023-01-05T10:40:13;97873.47;;;14.80;70.92
15932;BME280;8065;49.520;11.284;2023-01-05T10:42:49;97874.41;;;14.71;70.52
15932;BME280;8065;49.520;11.284;2023-01-05T10:45:19;97873.25;;;14.85;70.52
15932;BME280;8065;49.520;11.284;2023-01-05T10:47:47;97866.75;;;15.10;70.12
15932;BME280;8065;49.520;11.284;2023-01-05T10:50:30;97864.78;;;14.95;70.58
15932;BME280;8065;49.520;11.284;2023-01-05T10:53:15;97867.66;;;15.02;70.61
15932;BME280;8065;49.520;11.284;2023-01-05T10:55:50;97863.00;;;14.87;70.93
15932;BME280;8065;49.520;11.284;2023-01-05T10:58:22;97883.50;;;14.83;71.27
15932;BME280;8065;49.520;11.284;2023-01-05T11:00:52;97890.31;;;14.56;70.86
15932;BME280;8065;49.520;11.284;2023-01-05T11:03:24;97882.72;;;14.46;72.60
15932;BME280;8065;49.520;11.284;2023-01-05T11:05:53;97880.72;;;14.42;72.25
15932;BME280;8065;49.520;11.284;2023-01-05T11:08:21;97881.72;;;14.50;72.15
15932;BME280;8065;49.520;11.284;2023-01-05T11:10:52;97875.50;;;14.46;71.98
15932;BME280;8065;49.520;11.284;2023-01-05T11:13:27;97874.09;;;14.28;73.16
15932;BME280;8065;49.520;11.284;2023-01-05T11:15:58;97883.22;;;14.27;72.96
15932;BME280;8065;49.520;11.284;2023-01-05T11:18:30;97875.69;;;14.41;72.58
15932;BME280;8065;49.520;11.284;2023-01-05T11:21:11;97877.66;;;14.20;72.88
15932;BME280;8065;49.520;11.284;2023-01-05T11:23:39;97882.31;;;14.23;73.58
15932;BME280;8065;49.520;11.284;2023-01-05T11:26:21;97875.97;;;14.15;73.47
15932;BME280;8065;49.520;11.284;2023-01-05T11:31:46;97884.25;;;14.34;72.99
15932;BME280;8065;49.520;11.284;2023-01-05T11:34:25;97887.69;;;14.35;73.32
15932;BME280;8065;49.520;11.284;2023-01-05T11:36:55;97885.22;;;14.18;74.02
15932;BME280;8065;49.520;11.284;2023-01-05T11:39:28;97887.78;;;14.26;74.05
15932;BME280;8065;49.520;11.284;2023-01-05T11:42:14;97880.78;;;14.22;73.33
15932;BME280;8065;49.520;11.284;2023-01-05T11:44:42;97882.22;;;14.19;73.90
15932;BME280;8065;49.520;11.284;2023-01-05T11:47:17;97884.31;;;14.14;73.01
15932;BME280;8065;49.520;11.284;2023-01-05T11:49:45;97883.78;;;14.20;73.76
15932;BME280;8065;49.520;11.284;2023-01-05T11:52:27;97886.34;;;14.29;73.25
15932;BME280;8065;49.520;11.284;2023-01-05T11:54:54;97885.03;;;14.35;73.18
15932;BME280;8065;49.520;11.284;2023-01-05T11:57:21;97885.69;;;14.32;72.99
15932;BME280;8065;49.520;11.284;2023-01-05T11:59:48;97888.69;;;14.30;72.83
15932;BME280;8065;49.520;11.284;2023-01-05T12:02:48;97899.94;;;14.36;72.69
15932;BME280;8065;49.520;11.284;2023-01-05T12:05:24;97903.91;;;14.75;71.52
15932;BME280;8065;49.520;11.284;2023-01-05T12:07:58;97894.88;;;15.04;70.24
15932;BME280;8065;49.520;11.284;2023-01-05T12:10:46;97906.44;;;15.32;69.75
15932;BME280;8065;49.520;11.284;2023-01-05T12:13:30;97919.03;;;15.32;69.76
15932;BME280;8065;49.520;11.284;2023-01-05T12:16:21;97909.44;;;15.31;69.35
15932;BME280;8065;49.520;11.284;2023-01-05T12:21:53;97897.09;;;15.02;69.96
15932;BME280;8065;49.520;11.284;2023-01-05T12:24:41;97894.44;;;15.02;69.51
15932;BME280;8065;49.520;11.284;2023-01-05T12:27:18;97882.28;;;14.80;70.88
15932;BME280;8065;49.520;11.284;2023-01-05T12:30:09;97903.34;;;14.82;70.81
15932;BME280;8065;49.520;11.284;2023-01-05T12:32:49;97883.72;;;15.02;71.29
15932;BME280;8065;49.520;11.284;2023-01-05T12:35:53;97876.22;;;15.20;69.52
15932;BME280;8065;49.520;11.284;2023-01-05T12:38:32;97875.91;;;15.61;68.92
15932;BME280;8065;49.520;11.284;2023-01-05T12:41:32;97883.44;;;15.99;67.78
15932;BME280;8065;49.520;11.284;2023-01-05T12:44:16;97878.38;;;16.10;66.98
15932;BME280;8065;49.520;11.284;2023-01-05T12:46:57;97871.97;;;16.15;66.99
15932;BME280;8065;49.520;11.284;2023-01-05T12:49:29;97882.88;;;15.78;66.72
15932;BME280;8065;49.520;11.284;2023-01-05T12:52:02;97888.09;;;15.59;67.70
15932;BME280;8065;49.520;11.284;2023-01-05T12:54:39;97895.34;;;15.46;67.48
15932;BME280;8065;49.520;11.284;2023-01-05T12:57:11;97901.50;;;15.47;67.88
15932;BME280;8065;49.520;11.284;2023-01-05T12:59:46;97893.72;;;15.29;68.62
15932;BME280;8065;49.520;11.284;2023-01-05T13:02:23;97897.66;;;15.07;68.31
15932;BME280;8065;49.520;11.284;2023-01-05T13:04:56;97895.31;;;15.06;69.11
15932;BME280;8065;49.520;11.284;2023-01-05T13:07:30;97899.88;;;15.18;68.92
15932;BME280;8065;49.520;11.284;2023-01-05T13:10:00;97899.53;;;15.19;68.67
15932;BME280;8065;49.520;11.284;2023-01-05T13:12:30;97910.38;;;15.11;69.38
15932;BME280;8065;49.520;11.284;2023-01-05T13:15:05;97900.91;;;15.01;70.05
15932;BME280;8065;49.520;11.284;2023-01-05T13:17:33;97900.69;;;14.69;70.48
15932;BME280;8065;49.520;11.284;2023-01-05T13:20:04;97904.69;;;14.75;71.04
15932;BME280;8065;49.520;11.284;2023-01-05T13:22:37;97905.56;;;14.80;71.37
15932;BME280;8065;49.520;11.284;2023-01-05T13:25:15;97900.69;;;14.69;71.77
15932;BME280;8065;49.520;11.284;2023-01-05T13:27:43;97905.94;;;14.66;71.68
15932;BME280;8065;49.520;11.284;2023-01-05T13:30:19;97911.28;;;14.66;71.95